Time;durP1;ratioP1;P1;durP2;ratioP2;P2;SDS_P1;SDS_P2;PMS_P1;PMS_P2;Temp;Humidity;BMP_temperature;BMP_pressure;BME280_temperature;BME280_humidity;BME280_pressure;Samples;Min_cycle;Max_cycle;Signal;HPM_P1;HPM_P2
2023/05/26 00:01:34;;;;;;;13.63;7.82;;;;;;;14.63;82.07;96776.53;5092621;28;20055;-75
2023/05/26 00:04:02;;;;;;;11.82;7.75;;;;;;;14.65;82.10;96776.19;5090698;28;20040;-75
2023/05/26 00:06:31;;;;;;;11.70;7.28;;;;;;;14.67;82.23;96773.91;5092104;28;20036;-75
2023/05/26 00:08:58;;;;;;;12.48;8.02;;;;;;;14.70;81.47;96774.06;5092528;28;20133;-75
2023/05/26 00:11:24;;;;;;;17.73;8.45;;;;;;;14.67;81.28;96774.72;5091127;28;20046;-76
2023/05/26 00:13:51;;;;;;;11.80;8.10;;;;;;;14.66;80.57;96783.28;5100282;28;20044;-76
2023/05/26 00:16:17;;;;;;;13.18;7.60;;;;;;;14.70;80.63;96782.28;5087646;27;20052;-76
2023/05/26 00:18:45;;;;;;;15.25;9.32;;;;;;;14.72;80.08;96782.75;5107458;28;20403;-75
2023/05/26 00:21:12;;;;;;;12.25;7.95;;;;;;;14.74;79.56;96777.72;5112467;27;20051;-75
2023/05/26 00:23:38;;;;;;;13.02;8.07;;;;;;;14.79;78.80;96783.00;5098311;28;20515;-75
2023/05/26 00:26:05;;;;;;;11.55;7.63;;;;;;;14.81;78.63;96786.22;5090928;28;20066;-78
2023/05/26 00:28:31;;;;;;;11.38;7.72;;;;;;;14.82;78.88;96779.59;5091950;28;20407;-75
2023/05/26 00:30:58;;;;;;;12.38;7.80;;;;;;;14.81;78.32;96777.19;5092108;28;20098;-75
2023/05/26 00:33:24;;;;;;;12.80;8.30;;;;;;;14.82;78.25;96785.06;5091452;28;20050;-75
2023/05/26 00:35:52;;;;;;;11.20;6.82;;;;;;;14.83;77.69;96786.69;5091104;28;20054;-75
2023/05/26 00:38:18;;;;;;;14.82;7.22;;;;;;;14.81;76.92;96780.72;5091362;28;20070;-75
2023/05/26 00:40:45;;;;;;;9.88;6.57;;;;;;;14.83;76.41;96783.97;5091970;28;20044;-75
2023/05/26 00:43:11;;;;;;;9.85;6.60;;;;;;;14.86;75.86;96787.97;5091050;28;20048;-75
2023/05/26 00:45:38;;;;;;;9.38;6.22;;;;;;;14.87;75.45;96781.31;5094152;28;20046;-75
2023/05/26 00:48:06;;;;;;;10.05;6.10;;;;;;;14.87;74.59;96778.59;5102577;28;20550;-75
2023/05/26 00:50:33;;;;;;;9.70;6.30;;;;;;;14.86;74.47;96780.53;5091364;28;20537;-76
2023/05/26 00:53:01;;;;;;;12.38;6.03;;;;;;;14.70;73.65;96774.06;5091264;28;20086;-76
2023/05/26 00:55:29;;;;;;;12.95;6.82;;;;;;;14.65;73.36;96777.00;5091009;28;20044;-75
2023/05/26 00:57:56;;;;;;;11.32;6.00;;;;;;;14.68;72.97;96776.34;5091295;28;20539;-75
2023/05/26 01:00:23;;;;;;;7.32;5.32;;;;;;;14.74;73.32;96772.25;5090479;28;20044;-75
2023/05/26 01:02:55;;;;;;;10.30;6.18;;;;;;;14.68;73.60;96770.06;5091002;28;20507;-75
2023/05/26 01:05:22;;;;;;;10.75;5.93;;;;;;;14.75;74.01;96776.59;5090524;28;20058;-75
2023/05/26 01:07:49;;;;;;;11.35;6.00;;;;;;;14.75;73.19;96773.84;5091287;28;20047;-75
2023/05/26 01:10:17;;;;;;;9.90;5.85;;;;;;;14.77;73.36;96777.06;5090445;28;20044;-75
2023/05/26 01:12:49;;;;;;;12.02;6.60;;;;;;;14.79;74.68;96776.72;5090369;28;20169;-75
2023/05/26 01:15:22;;;;;;;8.70;5.75;;;;;;;14.76;75.20;96772.72;5090155;28;20044;-76
2023/05/26 01:17:58;;;;;;;8.93;6.32;;;;;;;14.74;75.17;96783.22;5090638;28;20048;-75
2023/05/26 01:20:30;;;;;;;8.40;5.50;;;;;;;14.72;75.19;96776.44;5081926;28;20055;-75
2023/05/26 01:23:15;;;;;;;9.85;6.53;;;;;;;14.70;75.74;96765.03;5087110;28;20086;-76
2023/05/26 01:26:07;;;;;;;11.32;6.57;;;;;;;14.72;77.79;96766.31;5089959;28;20051;-75
2023/05/26 01:28:39;;;;;;;10.20;6.50;;;;;;;14.70;77.99;96765.81;5090846;28;20041;-75
2023/05/26 01:31:05;;;;;;;16.10;7.32;;;;;;;14.73;77.83;96767.91;5090094;28;20719;-75
2023/05/26 01:33:33;;;;;;;12.85;6.35;;;;;;;14.75;77.41;96771.09;5090593;28;20488;-75
2023/05/26 01:35:59;;;;;;;11.05;6.30;;;;;;;14.77;77.31;96770.75;5090517;28;20047;-75
2023/05/26 01:38:26;;;;;;;9.93;6.35;;;;;;;14.76;76.63;96777.41;5088422;28;20135;-75
2023/05/26 01:40:57;;;;;;;10.27;6.07;;;;;;;14.75;76.69;96771.09;5090553;28;20040;-75
2023/05/26 01:43:29;;;;;;;10.45;6.38;;;;;;;14.73;76.28;96778.88;5090227;28;20043;-75
2023/05/26 01:46:03;;;;;;;11.03;6.33;;;;;;;14.73;76.31;96783.56;5088836;28;20458;-75
2023/05/26 01:48:32;;;;;;;10.85;6.82;;;;;;;14.71;77.20;96766.63;5081525;28;20036;-76
2023/05/26 01:50:59;;;;;;;10.18;6.30;;;;;;;14.68;77.42;96773.59;5090412;28;20063;-76
2023/05/26 01:53:31;;;;;;;9.57;6.65;;;;;;;14.66;76.85;96767.63;5069559;28;20063;-76
2023/05/26 01:55:59;;;;;;;10.90;6.40;;;;;;;14.65;76.70;96771.50;5070121;28;20045;-75
2023/05/26 01:58:26;;;;;;;11.40;6.90;;;;;;;14.64;77.12;96772.66;5069743;28;20040;-75
2023/05/26 02:00:53;;;;;;;12.23;6.60;;;;;;;14.64;77.93;96771.84;5086826;28;20055;-75
2023/05/26 02:03:22;;;;;;;11.30;6.78;;;;;;;14.60;77.33;96769.75;5089447;28;20050;-76
2023/05/26 02:05:48;;;;;;;10.35;6.32;;;;;;;14.58;77.11;96771.25;5090044;28;20086;-76
2023/05/26 02:08:15;;;;;;;10.50;6.43;;;;;;;14.57;77.42;96769.66;5089619;28;20436;-75
2023/05/26 02:10:41;;;;;;;9.45;6.28;;;;;;;14.53;77.60;96766.75;5083935;28;20068;-75
2023/05/26 02:13:08;;;;;;;10.85;6.78;;;;;;;14.50;77.95;96763.88;5069701;28;20044;-75
2023/05/26 02:15:34;;;;;;;9.52;6.65;;;;;;;14.47;78.32;96770.84;5069570;28;20048;-75
2023/05/26 02:18:02;;;;;;;14.23;7.03;;;;;;;14.41;78.67;96766.66;5069767;28;20048;-75
2023/05/26 02:20:30;;;;;;;9.35;6.03;;;;;;;14.31;78.46;96767.84;5069498;28;20119;-75
2023/05/26 02:22:57;;;;;;;10.20;6.00;;;;;;;14.24;78.64;96778.50;5083738;28;20059;-75
2023/05/26 02:25:24;;;;;;;13.27;6.53;;;;;;;14.19;78.71;96775.16;5089403;28;20040;-75
2023/05/26 02:27:50;;;;;;;12.77;6.75;;;;;;;14.14;78.89;96767.94;5089262;28;20044;-76
2023/05/26 02:30:17;;;;;;;12.55;6.47;;;;;;;14.08;79.54;96772.00;5080852;28;20407;-75
2023/05/26 02:32:43;;;;;;;13.20;6.75;;;;;;;14.02;79.32;96765.91;5089823;28;20389;-76
2023/05/26 02:35:10;;;;;;;10.27;6.45;;;;;;;13.97;79.43;96768.81;5089319;28;20058;-75
2023/05/26 02:37:38;;;;;;;10.88;6.88;;;;;;;13.92;79.54;96770.94;5089981;28;20048;-75
2023/05/26 02:40:06;;;;;;;14.10;7.03;;;;;;;13.87;79.50;96769.19;5089721;28;20139;-75
2023/05/26 02:42:32;;;;;;;14.30;7.22;;;;;;;13.83;79.50;96763.59;5090120;28;20074;-75
2023/05/26 02:44:59;;;;;;;10.30;6.78;;;;;;;13.80;79.91;96769.72;5089019;28;20044;-74
2023/05/26 02:47:25;;;;;;;10.93;7.30;;;;;;;13.78;80.28;96766.53;5069601;28;20075;-75
2023/05/26 02:49:52;;;;;;;13.73;7.18;;;;;;;13.74;80.74;96765.56;5069820;28;20045;-75
2023/05/26 02:52:18;;;;;;;13.80;6.93;;;;;;;13.72;80.55;96767.81;5088005;28;20512;-75
2023/05/26 02:54:46;;;;;;;14.98;7.25;;;;;;;13.69;80.32;96773.94;5090110;28;20059;-75
2023/05/26 02:57:12;;;;;;;13.15;6.93;;;;;;;13.64;80.43;96773.34;5088749;28;20389;-75
2023/05/26 02:59:39;;;;;;;10.23;6.78;;;;;;;13.60;80.54;96773.16;5089749;28;20048;-75
2023/05/26 03:02:05;;;;;;;10.73;6.82;;;;;;;13.57;80.68;96779.28;5089273;28;20131;-76
2023/05/26 03:04:32;;;;;;;11.98;7.90;;;;;;;13.54;80.61;96778.03;5089743;28;20051;-75
2023/05/26 03:06:58;;;;;;;11.48;7.18;;;;;;;13.49;80.70;96783.66;5089164;28;20060;-75
2023/05/26 03:09:25;;;;;;;12.95;7.22;;;;;;;13.45;80.25;96779.97;5080666;28;20052;-75
2023/05/26 03:11:53;;;;;;;10.82;7.05;;;;;;;13.40;80.48;96782.06;5089179;28;20044;-75
2023/05/26 03:14:20;;;;;;;11.55;7.35;;;;;;;13.35;80.26;96784.97;5089014;28;20044;-76
2023/05/26 03:16:46;;;;;;;10.45;6.88;;;;;;;13.27;80.45;96781.94;5081009;28;20504;-75
2023/05/26 03:19:13;;;;;;;11.18;6.70;;;;;;;13.19;80.51;96782.72;5069042;28;20040;-75
2023/05/26 03:21:40;;;;;;;10.30;6.60;;;;;;;13.13;80.41;96784.03;5069027;28;20071;-74
2023/05/26 03:24:07;;;;;;;12.00;7.78;;;;;;;13.10;80.86;96787.41;5068713;28;20564;-76
2023/05/26 03:26:33;;;;;;;10.82;7.13;;;;;;;13.08;81.21;96792.41;5069151;28;20041;-75
2023/05/26 03:29:01;;;;;;;12.10;7.15;;;;;;;13.07;81.10;96788.06;5069225;28;20051;-76
2023/05/26 03:31:28;;;;;;;12.10;7.43;;;;;;;13.07;81.40;96796.25;5088167;28;20040;-75
2023/05/26 03:33:54;;;;;;;13.43;7.63;;;;;;;13.07;81.73;96796.25;5088753;28;20087;-75
2023/05/26 03:36:21;;;;;;;12.30;7.55;;;;;;;13.07;81.95;96790.78;5088153;28;20044;-74
2023/05/26 03:38:47;;;;;;;11.63;7.50;;;;;;;13.06;81.68;96792.72;5091626;28;20044;-75
2023/05/26 03:41:14;;;;;;;12.43;7.55;;;;;;;13.04;81.52;96796.91;5092247;28;20410;-75
2023/05/26 03:43:40;;;;;;;12.20;7.30;;;;;;;13.02;81.56;96794.50;5092478;28;20059;-75
2023/05/26 03:46:08;;;;;;;13.93;7.38;;;;;;;13.00;81.12;96790.50;5085663;28;20440;-75
2023/05/26 03:48:34;;;;;;;15.27;7.35;;;;;;;12.99;81.16;96797.88;5072281;28;20051;-75
2023/05/26 03:51:01;;;;;;;13.25;7.28;;;;;;;12.90;81.05;96791.63;5072295;28;20053;-75
2023/05/26 03:53:28;;;;;;;12.57;7.60;;;;;;;12.90;81.08;96790.81;5091043;28;20499;-75
2023/05/26 03:55:56;;;;;;;10.77;7.28;;;;;;;12.89;80.75;96800.13;5092404;28;20087;-75
2023/05/26 03:58:23;;;;;;;12.10;7.53;;;;;;;12.86;80.90;96793.38;5092104;28;20047;-75
2023/05/26 04:00:50;;;;;;;13.52;7.20;;;;;;;12.83;80.97;96801.41;5092590;28;20056;-75
2023/05/26 04:03:18;;;;;;;11.30;7.32;;;;;;;12.79;80.72;96796.59;5091526;28;20051;-74
2023/05/26 04:05:44;;;;;;;11.20;7.03;;;;;;;12.76;80.81;96797.22;5091769;28;20048;-75
2023/05/26 04:08:11;;;;;;;11.43;7.20;;;;;;;12.77;80.49;96803.50;5091818;28;20451;-75
2023/05/26 04:10:37;;;;;;;11.65;7.05;;;;;;;12.78;80.56;96816.03;5104725;28;20117;-75
2023/05/26 04:13:04;;;;;;;11.77;7.38;;;;;;;12.76;80.58;96813.63;5112482;27;20040;-75
2023/05/26 04:15:30;;;;;;;10.70;6.85;;;;;;;12.75;81.04;96811.22;5094318;28;20065;-76
2023/05/26 04:17:56;;;;;;;10.57;6.90;;;;;;;12.76;80.97;96812.81;5101397;28;20047;-76
2023/05/26 04:20:24;;;;;;;11.45;7.05;;;;;;;12.79;81.00;96818.47;5093519;28;20036;-75
2023/05/26 04:22:51;;;;;;;14.05;7.75;;;;;;;12.83;81.43;96820.53;5113099;28;20494;-75
2023/05/26 04:25:17;;;;;;;10.73;6.82;;;;;;;12.84;81.49;96819.41;5112380;27;20047;-75
2023/05/26 04:27:44;;;;;;;10.13;6.68;;;;;;;12.86;81.34;96822.63;5095393;28;20629;-75
2023/05/26 04:30:11;;;;;;;13.13;6.95;;;;;;;12.86;81.21;96830.84;5091856;28;20036;-75
2023/05/26 04:32:37;;;;;;;10.57;7.10;;;;;;;12.84;80.91;96827.59;5092911;28;20415;-75
2023/05/26 04:35:05;;;;;;;12.07;6.90;;;;;;;12.88;81.15;96829.38;5091688;28;20044;-75
2023/05/26 04:37:33;;;;;;;11.73;7.20;;;;;;;12.93;81.32;96828.41;5091306;28;20582;-75
2023/05/26 04:40:00;;;;;;;9.75;6.90;;;;;;;12.94;80.90;96828.09;5092022;28;20044;-75
2023/05/26 04:42:27;;;;;;;12.90;7.05;;;;;;;12.98;80.68;96820.88;5095279;28;20044;-75
2023/05/26 04:44:54;;;;;;;11.02;6.95;;;;;;;13.03;80.75;96823.44;5091821;28;20040;-75
2023/05/26 04:47:22;;;;;;;11.55;7.05;;;;;;;13.04;80.53;96824.25;5098720;28;20050;-75
2023/05/26 04:49:48;;;;;;;11.70;7.18;;;;;;;13.09;80.49;96824.06;5095998;28;20097;-75
2023/05/26 04:52:15;;;;;;;13.60;7.40;;;;;;;13.11;80.74;96830.03;5110534;27;20054;-75
2023/05/26 04:54:43;;;;;;;9.70;6.65;;;;;;;13.15;80.44;96830.19;5091853;28;20048;-75
2023/05/26 04:57:09;;;;;;;9.32;6.40;;;;;;;13.20;80.00;96827.28;5091006;28;20040;-75
2023/05/26 04:59:37;;;;;;;11.77;7.05;;;;;;;13.22;79.71;96828.63;5090980;28;20059;-75
2023/05/26 05:02:04;;;;;;;13.35;6.85;;;;;;;13.20;79.63;96824.53;5090621;28;20077;-76
2023/05/26 05:04:30;;;;;;;12.23;6.63;;;;;;;13.22;79.50;96830.53;5090573;28;20051;-75
2023/05/26 05:06:57;;;;;;;10.70;6.90;;;;;;;13.23;79.37;96832.94;5090055;28;20679;-75
2023/05/26 05:09:23;;;;;;;13.40;7.53;;;;;;;13.27;79.44;96839.38;5091285;28;20040;-75
2023/05/26 05:11:51;;;;;;;12.85;7.07;;;;;;;13.35;80.26;96837.75;5097117;28;20040;-75
2023/05/26 05:14:18;;;;;;;11.98;6.75;;;;;;;13.44;80.56;96837.75;5085595;28;20036;-77
2023/05/26 05:16:46;;;;;;;14.35;7.13;;;;;;;13.51;80.18;96835.31;5068487;28;20107;-76
2023/05/26 05:19:12;;;;;;;12.13;6.90;;;;;;;13.57;80.64;96834.84;5061231;28;20040;-77
2023/05/26 05:21:39;;;;;;;14.10;8.20;;;;;;;13.66;80.84;96837.53;5069621;28;20049;-77
2023/05/26 05:24:05;;;;;;;11.80;7.47;;;;;;;13.72;80.62;96832.69;5062715;28;20049;-77
2023/05/26 05:26:32;;;;;;;11.68;7.38;;;;;;;13.80;80.60;96840.88;5070445;28;20048;-75
2023/05/26 05:29:00;;;;;;;11.30;7.10;;;;;;;13.87;79.75;96832.16;5069990;28;20049;-76
2023/05/26 05:31:26;;;;;;;12.95;7.10;;;;;;;13.96;79.12;96832.13;5065701;28;20048;-77
2023/05/26 05:33:53;;;;;;;13.13;7.43;;;;;;;13.98;76.75;96835.34;5064478;28;20053;-77
2023/05/26 05:36:19;;;;;;;11.60;7.03;;;;;;;14.11;75.94;96834.34;5068983;28;20040;-78
2023/05/26 05:38:46;;;;;;;11.13;7.25;;;;;;;14.07;74.43;96841.59;5063622;28;20037;-76
2023/05/26 05:41:14;;;;;;;11.02;6.93;;;;;;;14.28;75.13;96838.94;5070075;28;20052;-77
2023/05/26 05:43:40;;;;;;;13.45;6.78;;;;;;;14.37;75.73;96842.44;5066336;28;20041;-77
2023/05/26 05:46:08;;;;;;;17.02;7.38;;;;;;;14.42;76.19;96841.44;5060849;28;20050;-77
2023/05/26 05:48:34;;;;;;;11.73;7.32;;;;;;;14.54;75.55;96838.81;5070786;28;20496;-77
2023/05/26 05:51:01;;;;;;;13.38;7.63;;;;;;;14.52;72.20;96833.69;5064209;28;20048;-77
2023/05/26 05:53:27;;;;;;;13.77;7.32;;;;;;;14.47;70.41;96838.50;5067355;28;20044;-79
2023/05/26 05:55:54;;;;;;;15.70;7.32;;;;;;;14.66;71.59;96840.84;5073587;28;20039;-77
2023/05/26 05:58:20;;;;;;;12.65;7.32;;;;;;;14.70;71.96;96839.03;5074792;28;20074;-77
2023/05/26 06:00:47;;;;;;;11.45;6.82;;;;;;;14.86;71.78;96840.84;5088503;28;20048;-77
2023/05/26 06:03:15;;;;;;;15.45;7.70;;;;;;;14.94;71.80;96832.91;5096273;28;20044;-76
2023/05/26 06:05:41;;;;;;;14.57;7.07;;;;;;;14.91;71.48;96839.84;5087899;28;20128;-77
2023/05/26 06:08:08;;;;;;;13.02;7.22;;;;;;;14.99;72.13;96840.94;5083883;28;20044;-77
2023/05/26 06:10:34;;;;;;;17.10;7.10;;;;;;;15.04;69.77;96841.53;5081797;28;20044;-77
2023/05/26 06:13:00;;;;;;;10.57;6.20;;;;;;;15.25;69.52;96836.03;5086880;28;20045;-77
2023/05/26 06:15:27;;;;;;;13.90;7.88;;;;;;;15.27;68.92;96847.47;5096288;28;20062;-77
2023/05/26 06:17:54;;;;;;;14.27;8.15;;;;;;;15.35;68.23;96843.88;5082639;28;20131;-77
2023/05/26 06:20:21;;;;;;;15.20;10.52;;;;;;;15.31;67.97;96842.91;5085065;28;20048;-79
2023/05/26 06:22:48;;;;;;;13.15;7.22;;;;;;;15.40;66.93;96848.34;5089071;28;20044;-77
2023/05/26 06:25:14;;;;;;;13.30;6.95;;;;;;;15.52;67.20;96853.88;5090892;28;20056;-76
2023/05/26 06:27:41;;;;;;;16.98;7.93;;;;;;;15.61;65.10;96853.78;5084704;28;20047;-77
2023/05/26 06:30:08;;;;;;;10.93;6.53;;;;;;;15.65;63.93;96851.97;5094288;28;20044;-77
2023/05/26 06:32:37;;;;;;;14.00;6.68;;;;;;;15.80;66.65;96853.28;5092483;28;20048;-77
2023/05/26 06:35:05;;;;;;;10.88;6.43;;;;;;;15.99;65.51;96856.31;5078785;28;20048;-77
2023/05/26 06:37:33;;;;;;;13.18;6.75;;;;;;;16.05;65.32;96854.16;5083015;28;20045;-77
2023/05/26 06:40:00;;;;;;;10.57;6.75;;;;;;;16.17;65.16;96856.91;5084837;28;20036;-78
2023/05/26 06:42:26;;;;;;;12.15;6.75;;;;;;;16.12;62.90;96859.88;5084699;28;20051;-77
2023/05/26 06:44:52;;;;;;;9.20;5.72;;;;;;;16.21;63.26;96863.31;5081394;28;20048;-77
2023/05/26 06:47:23;;;;;;;11.55;6.03;;;;;;;16.36;62.83;96859.91;5086655;28;20052;-77
2023/05/26 06:49:49;;;;;;;13.32;7.18;;;;;;;16.53;64.67;96869.06;5094410;28;20501;-77
2023/05/26 06:52:16;;;;;;;12.57;6.43;;;;;;;16.58;64.55;96868.84;5095927;28;20044;-77
2023/05/26 06:54:44;;;;;;;12.57;6.43;;;;;;;16.63;61.69;96868.59;5096504;28;20047;-77
2023/05/26 06:57:11;;;;;;;12.63;7.05;;;;;;;16.58;61.92;96866.09;5089049;28;20050;-77
2023/05/26 06:59:37;;;;;;;11.38;6.57;;;;;;;16.65;61.92;96869.88;5084416;28;20178;-77
2023/05/26 07:02:04;;;;;;;8.82;6.30;;;;;;;16.75;61.43;96854.06;5074570;28;20045;-78
2023/05/26 07:04:31;;;;;;;11.85;6.68;;;;;;;16.85;62.12;96859.91;5076303;28;20043;-77
2023/05/26 07:06:57;;;;;;;14.52;6.53;;;;;;;16.83;60.28;96861.41;5083512;28;20412;-78
2023/05/26 07:09:23;;;;;;;14.50;7.20;;;;;;;16.72;58.98;96855.56;5080517;28;20388;-78
2023/05/26 07:11:51;;;;;;;11.32;6.55;;;;;;;16.97;60.74;96858.28;5077105;28;20040;-77
2023/05/26 07:14:18;;;;;;;13.55;6.85;;;;;;;17.01;60.23;96861.94;5084512;28;20041;-78
2023/05/26 07:16:45;;;;;;;14.05;6.97;;;;;;;17.08;59.18;96864.91;5090814;28;20043;-78
2023/05/26 07:19:11;;;;;;;14.75;6.95;;;;;;;17.21;60.22;96867.28;5087172;28;20044;-78
2023/05/26 07:21:38;;;;;;;14.25;7.18;;;;;;;17.24;59.65;96865.78;5091923;28;20057;-77
2023/05/26 07:24:05;;;;;;;11.32;6.30;;;;;;;17.40;57.93;96872.16;5083220;28;20044;-77
2023/05/26 07:26:31;;;;;;;11.00;6.50;;;;;;;17.47;58.39;96869.59;5075094;28;20075;-77
2023/05/26 07:28:59;;;;;;;10.68;6.47;;;;;;;17.60;57.58;96872.31;5078574;28;20067;-77
2023/05/26 07:31:26;;;;;;;11.60;6.78;;;;;;;17.71;58.12;96868.69;5084399;28;20044;-77
2023/05/26 07:33:52;;;;;;;12.25;6.95;;;;;;;17.87;58.60;96865.22;5078419;28;20044;-78
2023/05/26 07:36:20;;;;;;;10.98;6.57;;;;;;;17.96;57.48;96865.84;5083834;28;20123;-78
2023/05/26 07:38:47;;;;;;;11.75;6.78;;;;;;;18.02;57.67;96869.16;5075562;28;20061;-77
2023/05/26 07:41:13;;;;;;;14.25;7.93;;;;;;;18.02;58.32;96867.19;5080787;28;20133;-78
2023/05/26 07:43:40;;;;;;;17.70;7.68;;;;;;;18.13;57.40;96867.47;5084440;28;20063;-78
2023/05/26 07:46:07;;;;;;;11.38;7.22;;;;;;;18.40;59.80;96863.81;5083606;28;20044;-77
2023/05/26 07:48:34;;;;;;;25.33;9.65;;;;;;;18.41;57.50;96870.94;5085478;28;20049;-77
2023/05/26 07:51:00;;;;;;;16.30;7.85;;;;;;;18.44;59.34;96867.47;5086948;28;20045;-77
2023/05/26 07:53:27;;;;;;;13.38;7.32;;;;;;;18.49;57.54;96867.22;5090827;28;20044;-78
2023/05/26 07:55:53;;;;;;;13.18;7.25;;;;;;;18.69;57.49;96870.06;5089187;28;20047;-78
2023/05/26 07:58:20;;;;;;;14.73;7.38;;;;;;;18.78;57.17;96870.66;5085735;28;20040;-77
2023/05/26 08:00:46;;;;;;;13.48;7.80;;;;;;;18.85;56.33;96865.31;5086658;28;20040;-77
2023/05/26 08:03:14;;;;;;;15.23;7.72;;;;;;;18.99;56.14;96868.38;5080452;28;20040;-77
2023/05/26 08:05:42;;;;;;;13.40;7.20;;;;;;;19.16;56.89;96874.66;5084230;28;20044;-77
2023/05/26 08:08:08;;;;;;;13.27;7.30;;;;;;;19.30;55.43;96874.97;5080415;28;20044;-77
2023/05/26 08:10:34;;;;;;;15.93;7.60;;;;;;;19.53;55.58;96862.06;5087429;28;20062;-78
2023/05/26 08:13:01;;;;;;;11.85;7.50;;;;;;;19.73;53.69;96868.41;5087093;28;20036;-78
2023/05/26 08:15:28;;;;;;;10.73;7.55;;;;;;;19.89;52.86;96873.03;5087949;28;20044;-77
2023/05/26 08:17:54;;;;;;;13.68;7.80;;;;;;;20.03;52.51;96863.03;5081987;28;20048;-78
2023/05/26 08:20:22;;;;;;;11.05;7.57;;;;;;;20.18;52.74;96868.81;5075621;28;20047;-77
2023/05/26 08:22:56;;;;;;;14.05;7.68;;;;;;;20.41;53.67;96866.88;5085805;28;20036;-77
2023/05/26 08:25:22;;;;;;;12.18;7.05;;;;;;;20.58;53.90;96866.41;5087143;28;20059;-77
2023/05/26 08:27:48;;;;;;;12.10;6.72;;;;;;;20.75;55.05;96864.28;5084819;28;20047;-77
2023/05/26 08:30:15;;;;;;;10.82;7.45;;;;;;;20.87;52.17;96866.81;5077960;28;20051;-78
2023/05/26 08:32:42;;;;;;;13.68;7.85;;;;;;;20.94;51.04;96866.16;5078451;28;20043;-77
2023/05/26 08:35:09;;;;;;;13.55;6.97;;;;;;;20.92;52.30;96863.75;5089342;28;20065;-78
2023/05/26 08:37:36;;;;;;;11.55;7.45;;;;;;;21.16;53.79;96875.56;5081892;28;20040;-78
2023/05/26 08:40:04;;;;;;;14.35;7.00;;;;;;;20.97;51.48;96870.94;5080129;28;20061;-78
2023/05/26 08:42:34;;;;;;;13.32;7.70;;;;;;;21.21;50.65;96869.69;5081104;28;20487;-78
2023/05/26 08:45:01;;;;;;;14.23;8.35;;;;;;;20.89;50.93;96875.56;5086579;28;20047;-78
2023/05/26 08:47:28;;;;;;;14.23;7.88;;;;;;;21.08;51.81;96864.38;5083031;28;20051;-77
2023/05/26 08:50:00;;;;;;;12.20;7.78;;;;;;;20.94;51.32;96871.69;5087263;28;20064;-78
2023/05/26 08:52:27;;;;;;;12.55;8.70;;;;;;;21.02;50.07;96873.38;5084766;28;20044;-78
2023/05/26 08:54:55;;;;;;;14.50;8.13;;;;;;;20.99;49.92;96869.41;5083702;28;20104;-78
2023/05/26 08:57:22;;;;;;;14.68;8.02;;;;;;;21.20;52.48;96868.91;5080666;28;20061;-78
2023/05/26 08:59:49;;;;;;;19.65;8.18;;;;;;;21.39;51.87;96862.44;5081210;28;20036;-77
2023/05/26 09:02:17;;;;;;;15.18;7.80;;;;;;;21.37;49.34;96856.50;5078643;28;20047;-77
2023/05/26 09:04:43;;;;;;;11.25;7.65;;;;;;;21.54;55.44;96861.44;5081189;28;20492;-78
2023/05/26 09:07:10;;;;;;;11.10;6.97;;;;;;;21.56;51.24;96859.13;5092104;28;20047;-78
2023/05/26 09:09:37;;;;;;;14.23;8.02;;;;;;;21.57;51.00;96855.16;5073087;28;20049;-77
2023/05/26 09:12:10;;;;;;;15.27;7.80;;;;;;;21.63;50.65;96863.94;5091877;28;20500;-78
2023/05/26 09:14:36;;;;;;;;;;;;;;;21.72;50.65;96863.66;5077424;28;20052;-78
2023/05/26 09:17:04;;;;;;;14.52;7.30;;;;;;;21.85;50.90;96864.97;5078128;28;19924;-78
2023/05/26 09:19:32;;;;;;;10.68;6.50;;;;;;;22.08;50.50;96865.63;5086926;28;20048;-78
2023/05/26 09:22:06;;;;;;;13.45;7.40;;;;;;;22.14;50.46;96855.81;5085420;28;20040;-78
2023/05/26 09:24:43;;;;;;;14.90;7.80;;;;;;;22.19;51.61;96867.75;5091078;28;20108;-78
2023/05/26 09:27:20;;;;;;;9.80;6.38;;;;;;;22.36;52.36;96864.34;5081968;28;20044;-78
2023/05/26 09:29:51;;;;;;;16.35;7.30;;;;;;;22.31;51.07;96864.69;5084466;28;20479;-78
2023/05/26 09:32:17;;;;;;;14.55;7.40;;;;;;;22.08;48.18;96862.88;5082675;28;20503;-77
2023/05/26 09:34:46;;;;;;;15.48;7.60;;;;;;;22.03;47.96;96863.22;5081115;28;20052;-77
2023/05/26 09:37:12;;;;;;;10.63;7.07;;;;;;;22.08;48.63;96862.88;5076727;28;20059;-78
2023/05/26 09:39:39;;;;;;;14.40;8.00;;;;;;;21.98;47.13;96860.78;5072807;28;20051;-78
2023/05/26 09:42:07;;;;;;;13.52;6.35;;;;;;;22.11;49.26;96862.13;5089846;28;20078;-78
2023/05/26 09:44:35;;;;;;;15.55;7.47;;;;;;;22.23;51.79;96863.00;5083057;28;20110;-78
2023/05/26 09:47:02;;;;;;;13.07;7.35;;;;;;;22.32;53.69;96850.41;5088102;28;20036;-78
2023/05/26 09:49:28;;;;;;;12.73;7.65;;;;;;;22.47;50.93;96856.91;5088422;28;20435;-78
2023/05/26 09:51:55;;;;;;;10.00;6.05;;;;;;;22.60;49.92;96865.72;5078290;28;20044;-78
2023/05/26 09:54:21;;;;;;;14.32;6.82;;;;;;;22.28;49.80;96859.88;5085509;28;20059;-78
2023/05/26 09:56:52;;;;;;;14.48;7.05;;;;;;;22.54;49.86;96854.16;5077889;28;20411;-78
2023/05/26 09:59:21;;;;;;;12.80;7.07;;;;;;;22.46;49.99;96860.88;5089518;22;20050;-78
2023/05/26 10:01:49;;;;;;;12.15;6.28;;;;;;;22.58;49.01;96852.22;5070794;28;20102;-78
2023/05/26 10:04:16;;;;;;;12.02;6.55;;;;;;;22.82;50.49;96859.16;5069376;28;20037;-78
2023/05/26 10:06:44;;;;;;;9.77;5.72;;;;;;;22.92;50.65;96863.22;5062473;28;20071;-78
2023/05/26 10:09:12;;;;;;;12.00;6.65;;;;;;;22.91;49.17;96864.41;5069668;28;20074;-78
2023/05/26 10:11:44;;;;;;;13.32;7.05;;;;;;;22.97;50.18;96868.44;5068004;28;20139;-78
2023/05/26 10:14:11;;;;;;;14.10;7.68;;;;;;;22.59;50.57;96859.38;5070105;28;20044;-78
2023/05/26 10:16:38;;;;;;;9.77;6.45;;;;;;;22.44;47.49;96857.66;5078988;28;20044;-78
2023/05/26 10:19:07;;;;;;;13.60;6.80;;;;;;;22.24;51.23;96853.50;5069977;28;20045;-78
2023/05/26 10:21:37;;;;;;;12.90;7.22;;;;;;;22.37;49.35;96846.50;5071245;28;20580;-78
2023/05/26 10:24:11;;;;;;;12.85;6.88;;;;;;;22.61;48.87;96851.47;5071079;28;20048;-78
2023/05/26 10:26:46;;;;;;;16.40;7.38;;;;;;;22.69;50.77;96857.06;5072049;28;20049;-78
2023/05/26 10:29:18;;;;;;;11.73;5.28;;;;;;;22.72;46.52;96859.88;5071426;28;20037;-77
2023/05/26 10:31:44;;;;;;;12.80;5.97;;;;;;;22.63;47.24;96853.84;5070771;28;20422;-77
2023/05/26 10:34:36;;;;;;;13.25;6.38;;;;;;;22.57;48.70;96861.75;5072100;28;20887;-78
2023/05/26 10:37:03;;;;;;;11.73;5.82;;;;;;;22.77;49.94;96853.19;5067290;28;20036;-78
2023/05/26 10:39:29;;;;;;;10.20;6.20;;;;;;;22.83;47.43;96848.84;5070805;28;20415;-78
2023/05/26 10:41:56;;;;;;;11.57;6.32;;;;;;;22.62;47.72;96852.28;5072184;28;20071;-78
2023/05/26 10:44:43;;;;;;;11.48;5.72;;;;;;;22.50;46.27;96839.50;5071264;28;20051;-77
2023/05/26 10:47:14;;;;;;;9.75;6.40;;;;;;;22.59;47.10;96845.50;5070650;28;20040;-78
2023/05/26 10:49:43;;;;;;;9.48;4.82;;;;;;;22.90;48.17;96840.59;5074468;28;20404;-78
2023/05/26 10:52:14;;;;;;;9.35;5.15;;;;;;;22.80;45.82;96849.63;5072722;28;20052;-78
2023/05/26 10:54:42;;;;;;;11.23;5.93;;;;;;;22.62;49.25;96841.97;5072719;28;20045;-78
2023/05/26 10:57:28;;;;;;;10.77;5.70;;;;;;;22.89;45.71;96841.78;5073019;28;20550;-77
2023/05/26 10:59:55;;;;;;;12.15;6.00;;;;;;;22.76;45.71;96837.69;5067899;28;20044;-78
2023/05/26 11:02:22;;;;;;;13.48;6.55;;;;;;;22.75;48.21;96827.75;5072018;28;20044;-78
2023/05/26 11:04:51;;;;;;;9.50;5.18;;;;;;;22.92;47.54;96830.72;5072582;28;20040;-78
2023/05/26 11:07:21;;;;;;;9.88;4.90;;;;;;;23.17;48.51;96828.06;5073680;28;20094;-78
2023/05/26 11:09:58;;;;;;;11.77;5.80;;;;;;;23.01;48.27;96827.56;5073255;28;20044;-78
2023/05/26 11:12:25;;;;;;;9.57;5.30;;;;;;;23.15;47.37;96830.44;5074240;28;20060;-77
2023/05/26 11:14:52;;;;;;;6.32;4.45;;;;;;;23.10;47.93;96828.03;5076302;28;20041;-78
2023/05/26 11:17:19;;;;;;;12.00;5.90;;;;;;;23.07;46.28;96826.00;5075651;28;20071;-77
2023/05/26 11:19:58;;;;;;;8.27;4.82;;;;;;;22.97;46.87;96823.16;5075108;28;20115;-76
2023/05/26 11:22:25;;;;;;;8.23;4.70;;;;;;;23.20;47.65;96825.69;5076246;28;20040;-78
2023/05/26 11:24:53;;;;;;;11.77;5.53;;;;;;;23.13;45.56;96832.03;5082427;28;20051;-77
2023/05/26 11:27:25;;;;;;;8.13;5.30;;;;;;;23.28;46.71;96832.88;5075273;28;20706;-78
2023/05/26 11:29:58;;;;;;;7.78;5.05;;;;;;;23.33;46.98;96829.72;5074044;28;20033;-77